Millers River @ Erving, Ma

Millers River at Erving
 Total Drainage Area: 372 sq. miles 
 Drainage Area Controlled by Corps Dams: 225 sq. miles (60%) 
 Warning Flow/Stage: ?? cfs / ?? feet 
 Flood Flow/Stage: 4,640 cfs / 6.4 feet 
Date Time
(Eastern)
Stage
(ft)
Flow
(cfs)
CSM
(cfs / sq. mi.)
Jun-16 09:00 pm 2.31 234 .6
Jun-16 08:00 pm 2.30 231 .6
Jun-16 07:00 pm 2.31 234 .6
Jun-16 06:00 pm 2.30 231 .6
Jun-16 05:00 pm 2.30 231 .6
Jun-16 04:00 pm 2.30 231 .6
Jun-16 03:00 pm 2.29 227 .6
Jun-16 02:00 pm 2.28 224 .6
Jun-16 01:00 pm 2.28 224 .6
Jun-16 12:00 pm 2.28 224 .6
Jun-16 11:00 am 2.29 227 .6
Jun-16 10:00 am 2.29 227 .6
Jun-16 09:00 am 2.30 231 .6
Jun-16 08:00 am 2.30 231 .6
Jun-16 07:00 am 2.32 238 .6
Jun-16 06:00 am 2.33 241 .7
Jun-16 05:00 am 2.33 241 .7
Jun-16 04:00 am 2.34 245 .7
Jun-16 03:00 am 2.35 248 .7
Jun-16 02:00 am 2.35 248 .7
Jun-16 01:00 am 2.35 248 .7
Jun-16 12:00 am 2.35 248 .7
Jun-15 11:00 pm 2.35 248 .7
Jun-15 10:00 pm 2.34 245 .7
Jun-15 09:00 pm 2.34 245 .7
Report Generated June 17, 2024 01:35 am